Dudinka, Russia
Current Conditions -  °F | °C
As of 3:30 AM on Friday 28 Nov 2014 (Local Time) from USNN Reporting Station
Clear Clear  
Wind Chill: -46°   Ceiling: Unl
Heat Index: -27°   Visibility: 6mi
Dew Point: -36°   Wind: 7mph
Humidity: 62%   Direction: 290°WNW
Pressure: 30.27"   Gusts: NA
Location:  69.41°N, 86.18°E
Report Text: USNN 272030Z 29003MPS CAVOK M33/M38 Q1025 NOSIG RMK QFE76421410260
Loading
Personal Weather Stations






























Interactive Weather Map New forecast layout! Learn more

10-Day Weather Forecast

Advertisements
Track Severe Weather on mobile